Accueil
METAR-TAF:

METAR-TAF

Aéroports :

Base aérienne de Neubourg

Neubourg, Allemagne

latitude: 48-43N, longitude: 011-13E, altitude: 380 m

Observation

Le bulletin a été fait il y a 56 minutes, à 00:20 UTC
Vent 5 kt de est/nord-est
Température 14°C
Humidité 58%
Pression 1017 hPa
Visibilité 10 km ou plus
Quelques nuages à une hauteur de 13000 ft
Nuages épars à une hauteur de 25000 ft

METAR: ETSN 210020Z 06005KT 9999 FEW130 SCT250 14/06 Q1017 BLU+

Heure: 03:16 (01:16 UTC)

Prévision

Le bulletin a été fait il y a 3 heures et 16 minutes, à 22:00 UTC
Prévision valable du 20 à 23 UTC au 21 à 08 UTC
Vent 5 kt de est/nord-est
Visibilité 10 km ou plus
Quelques nuages à une hauteur de 6000 ft
Nuages fragmentés à une hauteur de 18000 ft

TAF: ETSN 202200Z 2023/2108 07005KT 9999 NSW FEW060 BKN180 BY ETGL

Observations et prévisions météorologiques de plus de 4000 aéroports (messages METAR et TAF).

Les stations disponibles sont représentées par des disques jaunes et rouges sur la carte.

Passer la souris dessus pour voir le nom de la station.

Cliquer dessus pour voir les observations et prévisions météorologiques.

Pour changer de carte: cliquez sur les boutons verts avec une croix noire pour zoomer, sur le bouton vert avec un tiret pour effectuer un zoom arrière, ou sur les flèches vertes pour les cartes adjacentes.


METAR-TAF: